Time;durP1;ratioP1;P1;durP2;ratioP2;P2;SDS_P1;SDS_P2;PMS_P1;PMS_P2;Temp;Humidity;BMP_temperature;BMP_pressure;BME280_temperature;BME280_humidity;BME280_pressure;Samples;Min_cycle;Max_cycle;Signal;HPM_P1;HPM_P2
2021/12/25 00:01:03;;;;;;;23.43;12.67;;;3.40;99.90;;;;;;5093885;28;20628;-76
2021/12/25 00:03:32;;;;;;;22.20;12.73;;;3.40;99.90;;;;;;5104840;28;20642;-77
2021/12/25 00:05:58;;;;;;;22.07;12.30;;;3.30;99.90;;;;;;5107237;28;20232;-76
2021/12/25 00:08:28;;;;;;;23.67;12.33;;;3.30;99.90;;;;;;5106597;28;20206;-77
2021/12/25 00:10:57;;;;;;;24.17;13.13;;;3.20;99.90;;;;;;5085298;28;20210;-77
2021/12/25 00:13:24;;;;;;;30.10;14.10;;;3.20;99.90;;;;;;5092736;28;20268;-76
2021/12/25 00:15:52;;;;;;;24.63;12.80;;;3.20;99.90;;;;;;5099324;28;20719;-76
2021/12/25 00:18:20;;;;;;;28.43;14.00;;;3.20;99.90;;;;;;5098463;28;20211;-76
2021/12/25 00:20:49;;;;;;;28.50;14.87;;;3.20;99.90;;;;;;5100450;28;20230;-76
2021/12/25 00:23:20;;;;;;;29.53;14.33;;;3.20;99.90;;;;;;5099031;28;20203;-76
2021/12/25 00:25:53;;;;;;;29.23;14.20;;;3.20;99.90;;;;;;5106221;28;20330;-75
2021/12/25 00:31:07;;;;;;;31.07;15.17;;;3.00;99.90;;;;;;5109340;28;20297;-78
2021/12/25 00:36:04;;;;;;;31.37;15.07;;;3.00;99.90;;;;;;5102033;28;20215;-77
2021/12/25 00:38:31;;;;;;;30.40;14.97;;;3.10;99.90;;;;;;5098668;28;20211;-77
2021/12/25 00:40:59;;;;;;;30.17;15.23;;;3.10;99.90;;;;;;5098139;28;20242;-76
2021/12/25 00:43:26;;;;;;;32.73;14.77;;;3.00;99.90;;;;;;5081853;28;20293;-76
2021/12/25 00:45:53;;;;;;;34.87;15.93;;;3.00;99.90;;;;;;5097894;28;20614;-77
2021/12/25 00:48:20;;;;;;;31.10;15.30;;;3.10;99.90;;;;;;5095108;28;20577;-78
2021/12/25 00:50:46;;;;;;;30.87;15.80;;;3.20;99.90;;;;;;5099855;28;20577;-76
2021/12/25 00:53:13;;;;;;;34.90;15.77;;;3.20;99.90;;;;;;5099165;28;20204;-76
2021/12/25 00:55:40;;;;;;;32.97;15.67;;;3.20;99.90;;;;;;5095388;28;20226;-77
2021/12/25 00:58:07;;;;;;;35.80;16.43;;;3.20;99.90;;;;;;5094833;28;20210;-77
2021/12/25 01:00:34;;;;;;;35.00;16.50;;;3.20;99.90;;;;;;5094267;28;20295;-77
2021/12/25 01:03:02;;;;;;;32.80;14.37;;;3.30;99.90;;;;;;5078825;28;20223;-77
2021/12/25 01:05:31;;;;;;;34.77;16.47;;;3.30;99.90;;;;;;5072183;28;20302;-77
2021/12/25 01:07:57;;;;;;;34.37;16.40;;;3.30;99.90;;;;;;5076807;28;20243;-76
2021/12/25 01:10:25;;;;;;;33.67;16.33;;;3.30;99.90;;;;;;5093532;28;20208;-76
2021/12/25 01:13:22;;;;;;;30.87;16.23;;;3.20;99.90;;;;;;5100372;28;20644;-77
2021/12/25 01:16:14;;;;;;;34.87;16.17;;;3.20;99.90;;;;;;5096177;28;20209;-76
2021/12/25 01:19:04;;;;;;;35.77;16.43;;;3.20;99.90;;;;;;5092171;28;20240;-76
2021/12/25 01:21:44;;;;;;;34.43;16.23;;;3.20;99.90;;;;;;5102579;28;20617;-77
2021/12/25 01:24:36;;;;;;;35.43;16.07;;;3.20;99.90;;;;;;5094435;28;20293;-77
2021/12/25 01:29:54;;;;;;;37.47;17.97;;;3.20;99.90;;;;;;5095455;28;20199;-76
2021/12/25 01:32:53;;;;;;;35.97;16.00;;;3.10;99.90;;;;;;5079422;28;20304;-76
2021/12/25 01:37:58;;;;;;;37.87;16.70;;;3.00;99.90;;;;;;5099610;28;20214;-76
2021/12/25 01:48:45;;;;;;;37.53;17.00;;;3.00;99.90;;;;;;5097214;28;20304;-77
2021/12/25 01:51:12;;;;;;;39.70;17.33;;;3.00;99.90;;;;;;5093031;28;20283;-76
2021/12/25 01:53:39;;;;;;;39.03;16.87;;;3.00;99.90;;;;;;5095783;28;20645;-77
2021/12/25 01:56:07;;;;;;;37.37;17.40;;;3.00;99.90;;;;;;5079174;28;20273;-77
2021/12/25 01:58:34;;;;;;;33.03;15.57;;;3.00;99.90;;;;;;5094678;28;20412;-77
2021/12/25 02:01:06;;;;;;;36.87;17.53;;;2.90;99.90;;;;;;5096368;28;20227;-76
2021/12/25 02:03:36;;;;;;;32.67;16.30;;;2.80;99.90;;;;;;5096896;28;20193;-76
2021/12/25 02:06:05;;;;;;;32.70;15.63;;;2.80;99.90;;;;;;5097700;28;20244;-77
2021/12/25 02:08:33;;;;;;;29.73;14.43;;;2.80;99.90;;;;;;5097420;28;20247;-76
2021/12/25 02:11:01;;;;;;;34.67;15.97;;;2.80;99.90;;;;;;5081006;28;20217;-76
2021/12/25 02:13:28;;;;;;;32.63;14.50;;;2.70;99.90;;;;;;5099915;28;20224;-75
2021/12/25 02:15:57;;;;;;;29.67;14.53;;;2.60;99.90;;;;;;5098570;28;20399;-77
2021/12/25 02:23:22;;;;;;;28.40;14.27;;;2.60;99.90;;;;;;5099189;28;20214;-76
2021/12/25 02:25:50;;;;;;;31.57;13.57;;;2.60;99.90;;;;;;5101519;28;20278;-75
2021/12/25 02:28:18;;;;;;;27.73;12.97;;;2.50;99.90;;;;;;5080536;28;20210;-77
2021/12/25 02:30:47;;;;;;;27.40;13.50;;;2.50;99.90;;;;;;5103485;28;20556;-76
2021/12/25 02:33:16;;;;;;;28.00;13.03;;;2.40;99.90;;;;;;5102840;28;20248;-75
2021/12/25 02:35:43;;;;;;;26.00;13.47;;;2.40;99.90;;;;;;5078092;28;20230;-76
2021/12/25 02:38:11;;;;;;;26.40;12.97;;;2.30;99.90;;;;;;5084405;28;20205;-76
2021/12/25 02:40:38;;;;;;;32.00;13.17;;;2.30;99.90;;;;;;5073087;28;20286;-75
2021/12/25 02:43:05;;;;;;;25.37;13.10;;;2.30;99.90;;;;;;5096750;28;20329;-78
2021/12/25 02:45:32;;;;;;;24.13;12.33;;;2.30;99.90;;;;;;5096771;28;20693;-76
2021/12/25 02:48:09;;;;;;;26.83;12.10;;;2.20;99.90;;;;;;5096923;28;20550;-76
2021/12/25 02:50:38;;;;;;;22.00;12.07;;;2.20;99.90;;;;;;5098576;28;20770;-76
2021/12/25 02:53:07;;;;;;;24.07;11.63;;;2.20;99.90;;;;;;5102607;28;20290;-76
2021/12/25 02:55:36;;;;;;;22.13;10.70;;;2.20;99.90;;;;;;5100392;28;20288;-76
2021/12/25 02:58:06;;;;;;;23.73;11.07;;;2.10;99.90;;;;;;5102876;28;20319;-77
2021/12/25 03:00:37;;;;;;;21.27;11.07;;;2.10;99.90;;;;;;5094956;28;20228;-76
2021/12/25 03:03:05;;;;;;;22.77;11.17;;;2.10;99.90;;;;;;5102656;28;20203;-77
2021/12/25 03:05:32;;;;;;;21.47;10.67;;;2.10;99.90;;;;;;5101826;28;20237;-76
2021/12/25 03:08:05;;;;;;;20.17;10.73;;;2.10;99.90;;;;;;5102957;28;20314;-75
2021/12/25 03:10:34;;;;;;;25.47;9.77;;;2.10;99.90;;;;;;5081590;28;20196;-76
2021/12/25 03:15:57;;;;;;;22.40;10.60;;;2.00;99.90;;;;;;5100431;28;20211;-76
2021/12/25 03:18:32;;;;;;;19.50;8.67;;;2.10;99.90;;;;;;5080861;28;20300;-76
2021/12/25 03:21:02;;;;;;;24.23;8.43;;;2.10;99.90;;;;;;5095789;28;20253;-76
2021/12/25 03:23:31;;;;;;;15.63;8.70;;;2.10;99.90;;;;;;5077086;28;20293;-77
2021/12/25 03:26:00;;;;;;;17.93;8.70;;;2.10;99.90;;;;;;5083910;28;20224;-76
2021/12/25 03:28:31;;;;;;;18.40;8.17;;;2.10;99.90;;;;;;5095105;28;20227;-76
2021/12/25 03:31:08;;;;;;;18.97;8.27;;;2.00;99.90;;;;;;5107482;28;20220;-76
2021/12/25 03:33:34;;;;;;;15.87;8.07;;;2.10;99.90;;;;;;5100742;28;20563;-76
2021/12/25 03:36:01;;;;;;;19.07;8.63;;;2.10;99.90;;;;;;5100784;28;20763;-75
2021/12/25 03:38:29;;;;;;;14.33;7.53;;;2.10;99.90;;;;;;5083589;28;20233;-75
2021/12/25 03:40:56;;;;;;;13.97;7.07;;;2.20;99.90;;;;;;5103114;28;20222;-76
2021/12/25 03:43:24;;;;;;;13.20;6.63;;;2.10;99.90;;;;;;5080462;28;20283;-76
2021/12/25 03:45:51;;;;;;;14.67;6.63;;;2.10;99.90;;;;;;5100429;28;20267;-76
2021/12/25 03:57:38;;;;;;;12.73;5.33;;;2.00;99.90;;;;;;5096961;28;20209;-75
2021/12/25 03:59:13;;;;;;;9.10;4.67;;;1.90;99.90;;;;;;5096211;28;20224;-76
2021/12/25 04:07:10;;;;;;;3.83;2.97;;;1.80;99.90;;;;;;5099752;28;20223;-75
2021/12/25 04:09:39;;;;;;;4.97;3.03;;;1.50;99.90;;;;;;5100994;28;20200;-75
2021/12/25 04:12:11;;;;;;;4.03;2.50;;;1.70;99.90;;;;;;5082153;28;20304;-75
2021/12/25 04:14:39;;;;;;;3.40;2.23;;;1.70;99.90;;;;;;5097681;28;20236;-76
2021/12/25 04:17:06;;;;;;;2.13;1.70;;;1.30;99.90;;;;;;5099839;28;20310;-76
2021/12/25 04:19:33;;;;;;;3.93;2.27;;;1.30;99.90;;;;;;5091856;28;20314;-75
2021/12/25 04:22:11;;;;;;;3.00;2.20;;;1.20;99.90;;;;;;5093772;28;20660;-76
2021/12/25 04:24:41;;;;;;;4.27;2.10;;;1.20;99.90;;;;;;5095178;28;20207;-75
2021/12/25 04:27:12;;;;;;;3.43;2.00;;;1.10;99.90;;;;;;5100528;28;20628;-76
2021/12/25 04:29:45;;;;;;;3.53;1.87;;;1.20;99.90;;;;;;5100102;28;20632;-76
2021/12/25 04:32:38;;;;;;;6.97;1.83;;;1.10;99.90;;;;;;5099468;28;20656;-76
2021/12/25 04:49:20;;;;;;;1.67;1.57;;;0.70;99.90;;;;;;5094345;28;20636;-75
2021/12/25 05:03:34;;;;;;;3.37;1.90;;;0.60;99.90;;;;;;5066674;28;20290;-75
2021/12/25 05:05:34;;;;;;;4.33;1.80;;;0.60;99.90;;;;;;5093089;28;20223;-75
2021/12/25 05:08:01;;;;;;;1.70;1.60;;;0.70;99.90;;;;;;5096814;28;20238;-75
2021/12/25 05:10:28;;;;;;;1.43;1.23;;;0.60;99.90;;;;;;5091425;28;20215;-75
2021/12/25 05:12:55;;;;;;;3.70;1.80;;;0.60;99.90;;;;;;5094307;28;20243;-75
2021/12/25 05:15:22;;;;;;;3.67;1.67;;;0.50;99.90;;;;;;5096353;28;20191;-75
2021/12/25 05:17:48;;;;;;;3.97;1.70;;;0.50;99.90;;;;;;5100944;28;20231;-75
2021/12/25 05:20:15;;;;;;;2.33;1.63;;;0.50;99.90;;;;;;5095010;28;20254;-75
2021/12/25 05:22:42;;;;;;;2.87;1.70;;;0.50;99.90;;;;;;5078314;28;20195;-76
2021/12/25 05:25:10;;;;;;;3.73;1.90;;;;;;;;;;5100665;28;20531;-76
2021/12/25 05:27:37;;;;;;;2.83;1.83;;;0.50;99.90;;;;;;5093844;28;20317;-76
2021/12/25 05:30:05;;;;;;;5.10;1.60;;;0.50;99.90;;;;;;5084178;28;20664;-76
2021/12/25 05:32:31;;;;;;;3.77;1.80;;;0.50;99.90;;;;;;5098360;28;20314;-74
2021/12/25 05:34:58;;;;;;;2.23;1.60;;;0.50;99.90;;;;;;5097085;28;20226;-75
2021/12/25 05:37:25;;;;;;;2.20;1.83;;;0.50;99.90;;;;;;5097034;28;20258;-75
2021/12/25 05:39:52;;;;;;;3.77;2.27;;;0.40;99.90;;;;;;5095764;28;20243;-76
2021/12/25 05:42:20;;;;;;;3.33;1.93;;;0.40;99.90;;;;;;5079940;28;20199;-74
2021/12/25 05:44:47;;;;;;;3.55;2.30;;;0.40;99.90;;;;;;5097865;28;20531;-74
2021/12/25 05:47:14;;;;;;;6.77;2.00;;;0.50;99.90;;;;;;5098320;28;20230;-75
2021/12/25 05:49:41;;;;;;;5.47;2.10;;;0.50;99.90;;;;;;5103147;28;20212;-74
2021/12/25 05:52:08;;;;;;;3.57;2.27;;;0.50;99.90;;;;;;5099915;28;20604;-75
2021/12/25 05:54:35;;;;;;;2.53;1.67;;;0.40;99.90;;;;;;5101699;28;20694;-75
2021/12/25 05:57:02;;;;;;;2.07;1.57;;;0.40;99.90;;;;;;5101737;28;20199;-75
2021/12/25 05:59:29;;;;;;;2.00;1.60;;;0.40;99.90;;;;;;5099752;28;20230;-75
2021/12/25 06:01:56;;;;;;;3.90;1.63;;;0.40;99.90;;;;;;5097757;28;20206;-74
2021/12/25 06:04:23;;;;;;;4.43;2.67;;;0.40;99.90;;;;;;5094855;28;20267;-75
2021/12/25 06:06:51;;;;;;;2.33;1.60;;;0.30;99.90;;;;;;5102979;28;20225;-75
2021/12/25 06:09:18;;;;;;;1.50;1.40;;;0.20;99.90;;;;;;5099526;28;20301;-75
2021/12/25 06:11:45;;;;;;;3.30;1.80;;;0.10;99.90;;;;;;5116131;28;20290;-77
2021/12/25 06:14:21;;;;;;;3.27;1.70;;;0.00;99.90;;;;;;5118315;28;20236;-75
2021/12/25 06:16:50;;;;;;;2.43;1.80;;;-0.10;99.90;;;;;;5115062;28;20231;-74
2021/12/25 06:19:17;;;;;;;3.57;1.70;;;-0.20;99.90;;;;;;5090052;28;20365;-76
2021/12/25 06:21:45;;;;;;;2.97;2.00;;;-0.30;99.90;;;;;;5096002;28;20249;-74
2021/12/25 06:24:14;;;;;;;4.90;1.80;;;;;;;;;;5116131;28;20202;-74
2021/12/25 06:26:41;;;;;;;3.00;2.00;;;-0.40;99.90;;;;;;5115221;28;20762;-74
2021/12/25 06:29:08;;;;;;;1.67;1.57;;;-0.50;99.90;;;;;;5087359;28;20621;-75
2021/12/25 06:31:35;;;;;;;3.80;2.00;;;-0.60;99.90;;;;;;5099961;28;20706;-74
2021/12/25 06:34:03;;;;;;;2.80;1.80;;;-0.70;99.90;;;;;;5100580;28;20198;-74
2021/12/25 06:36:30;;;;;;;4.10;2.00;;;-0.70;99.90;;;;;;5082534;28;20210;-75
2021/12/25 06:38:57;;;;;;;2.77;1.90;;;-0.80;99.90;;;;;;5100349;28;20226;-74
2021/12/25 06:41:24;;;;;;;7.30;1.90;;;-0.80;99.90;;;;;;5084832;28;20734;-74
2021/12/25 06:43:51;;;;;;;3.13;2.13;;;-0.80;99.90;;;;;;5100745;28;20608;-75
2021/12/25 06:46:17;;;;;;;3.50;1.70;;;-0.90;99.90;;;;;;5101399;28;20202;-75
2021/12/25 06:48:44;;;;;;;2.87;1.97;;;-0.90;99.90;;;;;;5085981;28;20209;-75
2021/12/25 06:51:11;;;;;;;3.23;2.13;;;-1.00;99.90;;;;;;5101423;28;20213;-75
2021/12/25 06:53:38;;;;;;;3.57;2.17;;;-1.00;99.90;;;;;;5068456;28;20204;-75
2021/12/25 06:56:05;;;;;;;3.33;2.10;;;-1.10;99.90;;;;;;5109063;28;20247;-75
2021/12/25 06:58:32;;;;;;;4.20;2.00;;;-1.10;99.90;;;;;;5108638;28;20289;-76
2021/12/25 07:00:59;;;;;;;3.50;2.10;;;-1.10;99.90;;;;;;5061508;28;20668;-76
2021/12/25 07:03:26;;;;;;;3.30;2.57;;;-1.20;99.90;;;;;;5078792;28;20208;-76
2021/12/25 07:05:53;;;;;;;2.87;2.13;;;-1.20;99.90;;;;;;5071493;28;20331;-74
2021/12/25 07:08:20;;;;;;;4.53;2.60;;;-1.20;99.90;;;;;;5080282;28;20229;-75
2021/12/25 07:10:47;;;;;;;2.50;2.17;;;-1.30;99.90;;;;;;5062854;28;20208;-76
2021/12/25 07:13:18;;;;;;;3.20;2.10;;;-1.30;99.90;;;;;;5081140;28;20656;-74
2021/12/25 07:15:45;;;;;;;6.10;2.50;;;-1.30;99.90;;;;;;5061522;28;20203;-75
2021/12/25 07:18:13;;;;;;;3.77;2.53;;;-1.30;99.90;;;;;;5075655;28;20296;-75
2021/12/25 07:20:40;;;;;;;4.70;2.70;;;-1.30;99.90;;;;;;5077282;28;20668;-76
2021/12/25 07:23:06;;;;;;;4.50;2.40;;;-1.50;99.90;;;;;;5078369;28;20241;-76
2021/12/25 07:25:33;;;;;;;3.83;2.30;;;-1.40;99.90;;;;;;5076009;28;20233;-78
2021/12/25 07:28:00;;;;;;;4.60;2.40;;;-1.50;99.90;;;;;;5078252;28;20300;-76
2021/12/25 07:30:27;;;;;;;4.97;2.30;;;-1.50;99.90;;;;;;5073717;28;20286;-76
2021/12/25 07:32:53;;;;;;;4.27;2.37;;;-1.50;99.90;;;;;;5075822;28;20266;-75
2021/12/25 07:35:20;;;;;;;3.40;2.83;;;-1.60;99.90;;;;;;5075718;28;20249;-75
2021/12/25 07:37:47;;;;;;;6.43;2.50;;;-1.60;99.90;;;;;;5078203;28;20396;-76
2021/12/25 07:40:14;;;;;;;3.97;2.20;;;-1.60;99.90;;;;;;5072785;28;20192;-75
2021/12/25 07:42:40;;;;;;;3.43;2.37;;;-1.70;99.90;;;;;;5066147;28;20200;-76
2021/12/25 07:45:08;;;;;;;6.00;2.40;;;-1.70;99.90;;;;;;5079480;28;20302;-76
2021/12/25 07:47:39;;;;;;;5.57;2.30;;;-1.70;99.90;;;;;;5074312;28;20228;-76
2021/12/25 07:50:08;;;;;;;2.70;2.20;;;-1.80;99.90;;;;;;5067095;28;20312;-76
2021/12/25 07:52:35;;;;;;;2.33;1.93;;;-1.80;99.90;;;;;;5073747;28;20304;-77
2021/12/25 07:55:06;;;;;;;2.17;1.80;;;-1.80;99.90;;;;;;5077547;28;20204;-75
2021/12/25 07:57:32;;;;;;;2.77;2.00;;;-1.80;99.90;;;;;;5073816;28;20201;-74
2021/12/25 07:59:59;;;;;;;2.27;1.90;;;-1.80;99.90;;;;;;5068490;28;20263;-75
2021/12/25 08:02:26;;;;;;;4.00;1.50;;;-1.80;99.90;;;;;;5079015;28;20200;-74
2021/12/25 08:04:53;;;;;;;3.93;1.67;;;-1.90;99.90;;;;;;5083702;28;20225;-76
2021/12/25 08:07:19;;;;;;;1.60;1.50;;;-1.80;99.90;;;;;;5077526;28;20319;-74
2021/12/25 08:09:46;;;;;;;3.27;1.77;;;-1.80;99.90;;;;;;5076146;28;20225;-74
2021/12/25 08:12:13;;;;;;;3.27;1.80;;;-1.80;99.90;;;;;;5072576;28;20204;-74
2021/12/25 08:14:40;;;;;;;2.20;1.67;;;-1.80;99.90;;;;;;5075176;28;20877;-75
2021/12/25 08:17:06;;;;;;;2.10;1.20;;;-1.80;99.90;;;;;;5084129;28;20542;-74
2021/12/25 08:19:33;;;;;;;1.53;1.43;;;-1.80;99.90;;;;;;5071189;28;20235;-74
2021/12/25 08:22:00;;;;;;;2.60;1.50;;;-1.80;99.90;;;;;;5077497;28;20287;-75
2021/12/25 08:24:27;;;;;;;1.70;1.57;;;-1.80;99.90;;;;;;5078823;28;20246;-76
2021/12/25 08:26:54;;;;;;;1.60;1.43;;;-1.80;99.90;;;;;;5078556;28;20242;-76
2021/12/25 08:29:21;;;;;;;1.33;1.20;;;-1.70;99.90;;;;;;5077345;28;20213;-75
2021/12/25 08:31:48;;;;;;;1.47;1.37;;;-1.80;99.90;;;;;;5083100;28;20200;-76
2021/12/25 08:34:15;;;;;;;1.30;1.20;;;-1.80;99.90;;;;;;5080705;28;20261;-77
2021/12/25 08:36:41;;;;;;;1.50;1.20;;;-1.80;99.90;;;;;;5082435;28;20230;-77
2021/12/25 08:39:08;;;;;;;2.67;1.20;;;-1.80;99.90;;;;;;5077041;28;20220;-76
2021/12/25 08:41:37;;;;;;;1.67;1.30;;;-1.90;99.90;;;;;;5076296;28;20233;-79
2021/12/25 08:44:29;;;;;;;1.90;1.50;;;-1.80;99.90;;;;;;5082486;28;20231;-76
2021/12/25 08:46:56;;;;;;;1.70;1.27;;;-1.80;99.90;;;;;;5078692;28;20235;-77
2021/12/25 08:49:28;;;;;;;2.97;1.50;;;-1.60;99.90;;;;;;5073558;28;20247;-76
2021/12/25 08:51:58;;;;;;;1.70;1.20;;;-1.80;99.90;;;;;;5084217;28;20235;-78
2021/12/25 08:54:26;;;;;;;2.47;1.10;;;-1.80;99.90;;;;;;5075455;28;20257;-75
2021/12/25 08:56:53;;;;;;;1.20;1.10;;;-1.70;99.90;;;;;;5085644;28;20209;-77
2021/12/25 08:59:20;;;;;;;1.10;1.10;;;-1.60;99.90;;;;;;5084371;28;20235;-78
2021/12/25 09:01:48;;;;;;;1.50;1.20;;;-1.70;99.90;;;;;;5095324;28;21082;-78
2021/12/25 09:04:15;;;;;;;2.33;1.13;;;-1.70;99.90;;;;;;5077191;28;20218;-77
2021/12/25 09:06:42;;;;;;;1.77;1.30;;;-1.70;99.90;;;;;;5097089;28;20713;-78
2021/12/25 09:09:09;;;;;;;1.80;1.40;;;-1.70;99.90;;;;;;5076095;28;20228;-76
2021/12/25 09:11:37;;;;;;;1.60;1.20;;;-1.70;99.90;;;;;;5098464;28;20286;-76
2021/12/25 09:14:05;;;;;;;1.40;1.20;;;-1.70;99.90;;;;;;5096255;28;20207;-77
2021/12/25 09:16:32;;;;;;;1.77;1.07;;;-1.60;99.90;;;;;;5092027;28;20232;-75
2021/12/25 09:19:00;;;;;;;1.33;1.23;;;-1.60;99.90;;;;;;5097735;28;20241;-76
2021/12/25 09:21:27;;;;;;;1.27;1.10;;;-1.60;99.90;;;;;;5095211;28;20316;-76
2021/12/25 09:23:54;;;;;;;2.30;1.10;;;-2.20;99.90;;;;;;5106060;28;20310;-76
2021/12/25 09:26:21;;;;;;;1.90;1.20;;;-1.60;99.90;;;;;;5083682;28;20215;-76
2021/12/25 09:28:48;;;;;;;1.33;1.20;;;-1.60;99.90;;;;;;5070241;28;20232;-77
2021/12/25 09:31:15;;;;;;;2.00;1.13;;;-1.60;99.90;;;;;;5101865;28;20323;-76
2021/12/25 09:33:42;;;;;;;2.57;1.10;;;-1.50;99.90;;;;;;5103841;28;20309;-76
2021/12/25 09:36:15;;;;;;;2.60;1.20;;;-1.50;99.90;;;;;;5100718;28;20604;-76
2021/12/25 09:38:42;;;;;;;1.27;1.17;;;-1.50;99.90;;;;;;5098786;28;20238;-76
2021/12/25 09:41:09;;;;;;;1.60;1.20;;;-1.50;99.90;;;;;;5102152;28;20199;-76
2021/12/25 09:43:36;;;;;;;2.10;1.10;;;-1.50;99.90;;;;;;5104142;28;20204;-75
2021/12/25 09:46:04;;;;;;;1.13;1.00;;;-1.50;99.90;;;;;;5104585;28;20622;-77
2021/12/25 09:48:33;;;;;;;1.30;1.20;;;-1.20;99.90;;;;;;5105424;28;20686;-76
2021/12/25 09:51:00;;;;;;;1.23;1.00;;;-1.50;99.90;;;;;;5085672;28;20219;-75
2021/12/25 09:53:28;;;;;;;0.80;0.80;;;-1.40;99.90;;;;;;5105315;28;20207;-76
2021/12/25 09:55:55;;;;;;;1.00;0.93;;;-1.40;99.90;;;;;;5105974;28;20191;-77
2021/12/25 09:58:24;;;;;;;1.10;1.00;;;-1.40;99.90;;;;;;5102125;28;20697;-76
2021/12/25 10:00:53;;;;;;;1.03;0.90;;;-1.40;99.90;;;;;;5104964;28;20223;-75
2021/12/25 10:03:22;;;;;;;2.30;1.23;;;-1.40;99.90;;;;;;5101886;28;20200;-78
2021/12/25 10:05:50;;;;;;;0.90;0.90;;;-1.30;99.90;;;;;;5099527;28;20692;-77
2021/12/25 10:08:20;;;;;;;2.90;1.03;;;-1.30;99.90;;;;;;5103268;28;20237;-76
2021/12/25 10:11:01;;;;;;;0.90;0.90;;;-1.30;99.90;;;;;;5106661;28;20285;-76
2021/12/25 10:13:30;;;;;;;1.00;1.00;;;-1.30;99.90;;;;;;5084131;28;20271;-77
2021/12/25 10:16:27;;;;;;;1.27;1.20;;;-1.20;99.90;;;;;;5083181;28;20234;-76
2021/12/25 10:19:15;;;;;;;1.57;1.03;;;-1.20;99.90;;;;;;5078151;28;20283;-76
2021/12/25 10:21:42;;;;;;;1.23;1.10;;;-1.50;99.90;;;;;;5099032;28;20220;-78
2021/12/25 10:24:18;;;;;;;1.10;1.00;;;-1.30;99.90;;;;;;5084184;28;20638;-76
2021/12/25 10:26:47;;;;;;;2.37;1.00;;;-1.20;99.90;;;;;;5101365;28;20207;-76
2021/12/25 10:29:32;;;;;;;1.20;1.00;;;-1.60;99.90;;;;;;5104811;28;20323;-76
2021/12/25 10:32:12;;;;;;;0.97;0.93;;;-1.10;99.90;;;;;;5083416;28;20633;-76
2021/12/25 10:34:39;;;;;;;1.10;1.07;;;-1.10;99.90;;;;;;5088192;28;20227;-75
2021/12/25 10:37:10;;;;;;;3.10;1.07;;;-1.10;99.90;;;;;;5100516;28;20450;-76
2021/12/25 10:39:37;;;;;;;2.20;1.50;;;-1.00;99.90;;;;;;5097130;28;20208;-76
2021/12/25 10:42:13;;;;;;;1.00;1.00;;;-1.00;99.90;;;;;;5099189;28;20303;-77
2021/12/25 10:44:41;;;;;;;1.20;1.00;;;-1.00;99.90;;;;;;5098122;28;20204;-75
2021/12/25 10:47:10;;;;;;;1.07;1.00;;;-1.00;99.90;;;;;;5101734;28;20301;-77
2021/12/25 10:49:44;;;;;;;0.90;0.90;;;-0.80;99.90;;;;;;5097635;28;20260;-75
2021/12/25 10:52:27;;;;;;;1.00;1.00;;;-0.90;99.90;;;;;;5098961;28;20261;-76
2021/12/25 10:55:13;;;;;;;1.20;1.10;;;-0.90;99.90;;;;;;5106774;28;20200;-75
2021/12/25 10:57:48;;;;;;;1.30;0.93;;;-0.90;99.90;;;;;;5097643;28;20860;-76
2021/12/25 11:00:31;;;;;;;3.13;0.90;;;-0.90;99.90;;;;;;5103313;28;20223;-75
2021/12/25 11:03:08;;;;;;;2.17;1.10;;;-0.80;99.90;;;;;;5100242;28;20561;-76
2021/12/25 11:05:45;;;;;;;1.80;1.10;;;-0.80;99.90;;;;;;5099331;28;20751;-76
2021/12/25 11:08:24;;;;;;;4.57;1.27;;;-0.70;99.90;;;;;;5100019;28;20334;-76
2021/12/25 11:10:54;;;;;;;3.37;1.00;;;-0.70;99.90;;;;;;5105770;28;20269;-78
2021/12/25 11:13:32;;;;;;;0.90;0.90;;;-0.50;99.90;;;;;;5099571;28;20192;-76
2021/12/25 11:16:12;;;;;;;1.07;0.90;;;-0.60;99.90;;;;;;5098532;28;20661;-75
2021/12/25 11:19:03;;;;;;;1.40;1.00;;;-0.60;99.90;;;;;;5073846;28;20632;-76
2021/12/25 11:21:35;;;;;;;1.23;0.90;;;-0.50;99.90;;;;;;5101626;28;20265;-78
2021/12/25 11:24:07;;;;;;;2.20;0.90;;;-0.50;99.90;;;;;;5101407;28;20699;-78
2021/12/25 11:26:34;;;;;;;1.33;0.97;;;-0.50;99.90;;;;;;5100851;28;20249;-76
2021/12/25 11:29:03;;;;;;;1.27;1.17;;;-0.50;99.90;;;;;;5099795;28;20592;-75
2021/12/25 11:31:31;;;;;;;1.17;1.00;;;-0.40;99.90;;;;;;5109368;28;20208;-77
2021/12/25 11:33:59;;;;;;;0.93;0.93;;;-0.40;99.90;;;;;;5102630;28;20209;-76
2021/12/25 11:36:26;;;;;;;1.43;0.90;;;-0.40;99.90;;;;;;5082560;28;20198;-75
2021/12/25 11:38:54;;;;;;;1.10;1.00;;;-0.30;99.90;;;;;;5102898;28;20648;-77
2021/12/25 11:41:27;;;;;;;2.43;1.20;;;-0.80;99.90;;;;;;5098246;28;20212;-76
2021/12/25 11:43:55;;;;;;;1.30;1.20;;;-0.30;99.90;;;;;;5101208;28;20238;-78
2021/12/25 11:46:35;;;;;;;3.53;2.23;;;0.00;99.90;;;;;;5096093;28;20221;-76
2021/12/25 11:49:14;;;;;;;1.00;1.00;;;0.40;99.90;;;;;;5087365;28;20697;-76
2021/12/25 11:51:44;;;;;;;0.90;0.90;;;-0.30;99.90;;;;;;5099569;28;20210;-76
2021/12/25 11:54:30;;;;;;;3.17;0.93;;;-0.30;99.90;;;;;;5095279;28;20202;-77
2021/12/25 11:57:34;;;;;;;1.20;1.10;;;-0.30;99.90;;;;;;5102974;28;20263;-75
2021/12/25 11:59:58;;;;;;;0.90;0.90;;;-0.20;99.90;;;;;;5104800;28;20683;-77
2021/12/25 12:02:42;;;;;;;1.63;0.97;;;-0.20;99.90;;;;;;5099350;28;20203;-76
2021/12/25 12:05:29;;;;;;;1.53;1.30;;;-0.30;99.90;;;;;;5097158;28;20250;-76
2021/12/25 12:08:11;;;;;;;4.43;1.10;;;-0.20;99.90;;;;;;5097999;28;20684;-76
2021/12/25 12:10:48;;;;;;;1.00;1.00;;;-0.30;99.90;;;;;;5081113;28;20270;-78
2021/12/25 12:13:25;;;;;;;1.10;1.00;;;-0.30;99.90;;;;;;5101467;28;20639;-76
2021/12/25 12:15:58;;;;;;;2.63;1.30;;;-0.20;99.90;;;;;;5103334;28;20217;-75
2021/12/25 12:18:28;;;;;;;1.20;1.10;;;-0.20;99.90;;;;;;5089263;28;20212;-76
2021/12/25 12:21:32;;;;;;;0.90;0.90;;;-0.20;99.90;;;;;;5110047;28;20237;-77
2021/12/25 12:27:06;;;;;;;1.43;1.13;;;-0.30;99.90;;;;;;5107953;28;20732;-77
2021/12/25 12:29:39;;;;;;;1.13;0.93;;;-0.30;99.90;;;;;;5092638;28;20262;-76
2021/12/25 12:32:27;;;;;;;1.20;1.10;;;-0.20;99.90;;;;;;5113465;28;20231;-76
2021/12/25 12:34:54;;;;;;;1.40;1.00;;;-0.10;99.90;;;;;;5105002;28;20227;-76
2021/12/25 12:37:21;;;;;;;1.30;1.20;;;-0.20;99.90;;;;;;5114265;28;20202;-76
2021/12/25 12:39:55;;;;;;;1.57;1.10;;;-0.20;99.90;;;;;;5109782;28;20250;-76
2021/12/25 12:42:46;;;;;;;1.90;1.30;;;-0.30;99.90;;;;;;5081304;28;20639;-76
2021/12/25 12:45:23;;;;;;;1.00;0.93;;;-0.30;99.90;;;;;;5096158;28;20214;-75
2021/12/25 12:48:16;;;;;;;1.37;1.00;;;-0.20;99.90;;;;;;5084701;28;20237;-76
2021/12/25 12:50:55;;;;;;;3.10;0.97;;;-0.30;99.90;;;;;;5098221;28;20305;-75
2021/12/25 12:53:24;;;;;;;4.20;1.20;;;-0.30;99.90;;;;;;5081134;28;20215;-76
2021/12/25 12:56:02;;;;;;;2.10;1.20;;;-0.20;99.90;;;;;;5079437;28;20678;-78
2021/12/25 12:58:31;;;;;;;1.07;1.00;;;-0.20;99.90;;;;;;5089891;28;20205;-78
2021/12/25 13:01:01;;;;;;;1.27;1.10;;;-0.20;99.90;;;;;;5096527;28;20857;-76
2021/12/25 13:03:29;;;;;;;0.90;0.90;;;-0.10;99.90;;;;;;5098971;28;20315;-75
2021/12/25 13:06:04;;;;;;;1.43;1.33;;;-0.10;99.90;;;;;;5099860;28;20313;-75
2021/12/25 13:08:34;;;;;;;1.37;1.00;;;-0.10;99.90;;;;;;5103314;28;20227;-76
2021/12/25 13:11:41;;;;;;;1.10;1.00;;;-0.10;99.90;;;;;;5101853;28;20297;-77
2021/12/25 13:14:08;;;;;;;1.90;1.10;;;-0.10;99.90;;;;;;5099811;28;20252;-76
2021/12/25 13:16:41;;;;;;;1.77;1.67;;;-0.10;99.90;;;;;;5100709;28;20291;-76
2021/12/25 13:19:09;;;;;;;4.63;1.73;;;-0.10;99.90;;;;;;5078202;28;20706;-76
2021/12/25 13:21:37;;;;;;;1.40;1.13;;;-0.10;99.90;;;;;;5101268;28;21179;-75
2021/12/25 13:24:09;;;;;;;1.50;1.30;;;-0.10;99.90;;;;;;5102299;28;20194;-76
2021/12/25 13:26:41;;;;;;;2.63;1.60;;;-0.20;99.90;;;;;;5100649;28;20631;-76
2021/12/25 13:29:12;;;;;;;3.70;1.30;;;-0.20;99.90;;;;;;5099405;28;20247;-76
2021/12/25 13:31:41;;;;;;;3.20;1.20;;;-0.20;99.90;;;;;;5095905;28;20221;-75
2021/12/25 13:34:28;;;;;;;1.33;1.07;;;-0.20;99.90;;;;;;5079428;28;20217;-77
2021/12/25 13:37:00;;;;;;;1.90;1.37;;;-0.20;99.90;;;;;;5099925;28;20263;-75
2021/12/25 13:39:32;;;;;;;2.50;1.20;;;-0.10;99.90;;;;;;5101029;28;20625;-75
2021/12/25 13:42:13;;;;;;;1.20;1.10;;;-0.10;99.90;;;;;;5098987;28;20263;-75
2021/12/25 13:44:44;;;;;;;3.50;1.73;;;-0.10;99.90;;;;;;5097209;28;20199;-77
2021/12/25 13:47:27;;;;;;;1.30;1.20;;;-0.10;99.90;;;;;;5096025;28;20215;-75
2021/12/25 13:50:00;;;;;;;2.97;1.27;;;-0.10;99.90;;;;;;5098318;28;20268;-75
2021/12/25 13:52:35;;;;;;;1.93;1.00;;;-0.20;99.90;;;;;;5097199;28;20307;-76
2021/12/25 13:55:06;;;;;;;2.60;1.50;;;-0.20;99.90;;;;;;5098522;28;20293;-75
2021/12/25 13:57:35;;;;;;;1.57;1.17;;;-0.20;99.90;;;;;;5098163;28;20216;-76
2021/12/25 14:00:11;;;;;;;2.43;1.17;;;-0.20;99.90;;;;;;5099530;28;20269;-77
2021/12/25 14:02:41;;;;;;;2.50;1.47;;;-0.20;99.90;;;;;;5100678;28;20214;-75
2021/12/25 14:05:08;;;;;;;2.60;1.70;;;-0.20;99.90;;;;;;5079126;28;20224;-75
2021/12/25 14:07:37;;;;;;;2.50;1.10;;;-0.30;99.90;;;;;;5099432;28;20211;-76
2021/12/25 14:10:11;;;;;;;2.73;1.20;;;-0.20;99.90;;;;;;5103985;28;20250;-76
2021/12/25 14:12:44;;;;;;;3.67;1.73;;;-0.20;99.90;;;;;;5099510;28;20205;-76
2021/12/25 14:15:13;;;;;;;3.27;1.07;;;0.00;99.90;;;;;;5104723;28;20633;-77